Time;durP1;ratioP1;P1;durP2;ratioP2;P2;SDS_P1;SDS_P2;PMS_P1;PMS_P2;Temp;Humidity;BMP_temperature;BMP_pressure;BME280_temperature;BME280_humidity;BME280_pressure;Samples;Min_cycle;Max_cycle;Signal;HPM_P1;HPM_P2
2021/03/17 00:02:07;;;;;;;43.95;6.15;;;;;;;8.59;100.00;103672.31;5070850;28;20467;-68
2021/03/17 00:04:33;;;;;;;36.63;6.07;;;;;;;8.57;100.00;103671.63;5070731;28;20040;-66
2021/03/17 00:06:58;;;;;;;28.35;5.38;;;;;;;8.54;100.00;103677.41;5052763;28;20071;-68
2021/03/17 00:09:24;;;;;;;33.90;5.63;;;;;;;8.52;100.00;103676.72;5070806;28;20049;-69
2021/03/17 00:11:50;;;;;;;29.83;5.63;;;;;;;8.50;100.00;103665.09;5070756;28;20033;-65
2021/03/17 00:14:15;;;;;;;40.28;7.25;;;;;;;8.47;100.00;103654.53;5070790;28;20116;-67
2021/03/17 00:16:41;;;;;;;37.60;7.82;;;;;;;8.47;100.00;103665.41;5070643;28;20044;-67
2021/03/17 00:19:07;;;;;;;46.22;6.75;;;;;;;8.44;100.00;103677.50;5070440;28;20040;-67
2021/03/17 00:21:32;;;;;;;38.10;6.30;;;;;;;8.40;100.00;103670.66;5070701;28;20064;-67
2021/03/17 00:23:58;;;;;;;30.52;5.55;;;;;;;8.39;100.00;103674.41;5052556;28;20117;-65
2021/03/17 00:26:24;;;;;;;32.90;5.75;;;;;;;8.38;100.00;103680.88;5070708;28;20036;-69
2021/03/17 00:28:49;;;;;;;32.13;5.75;;;;;;;8.34;100.00;103681.34;5070541;28;20372;-68
2021/03/17 00:31:15;;;;;;;30.73;5.97;;;;;;;8.32;100.00;103684.16;5052733;28;20479;-66
2021/03/17 00:33:41;;;;;;;36.58;6.05;;;;;;;8.31;100.00;103681.59;5070251;28;20032;-66
2021/03/17 00:36:07;;;;;;;35.22;5.78;;;;;;;8.30;100.00;103685.34;5052359;28;20029;-69
2021/03/17 00:38:33;;;;;;;27.55;5.70;;;;;;;8.30;100.00;103685.34;5070522;28;20054;-68
2021/03/17 00:40:59;;;;;;;46.10;7.50;;;;;;;8.28;100.00;103676.47;5070316;28;20044;-67
2021/03/17 00:43:24;;;;;;;32.80;5.90;;;;;;;8.26;100.00;103679.34;5052447;28;20045;-70
2021/03/17 00:45:50;;;;;;;33.58;6.03;;;;;;;8.24;100.00;103670.50;5070345;28;20037;-66
2021/03/17 00:48:15;;;;;;;45.70;6.70;;;;;;;8.23;100.00;103678.81;5070251;28;20051;-64
2021/03/17 00:50:41;;;;;;;30.85;5.70;;;;;;;8.22;100.00;103677.13;5072016;28;20036;-69
2021/03/17 00:53:07;;;;;;;34.40;7.13;;;;;;;8.19;100.00;103682.88;5074251;28;20043;-66
2021/03/17 00:55:33;;;;;;;33.28;5.68;;;;;;;8.18;100.00;103686.63;5074224;28;20032;-64
2021/03/17 00:57:58;;;;;;;48.10;7.57;;;;;;;8.16;100.00;103678.63;5074374;28;20029;-68
2021/03/17 01:00:24;;;;;;;38.92;5.97;;;;;;;8.15;100.00;103679.59;5074277;28;20461;-68
2021/03/17 01:02:50;;;;;;;37.85;7.18;;;;;;;8.13;100.00;103682.47;5073931;28;20129;-65
2021/03/17 01:05:16;;;;;;;33.00;5.88;;;;;;;8.13;100.00;103679.75;5074053;28;20028;-63
2021/03/17 01:07:42;;;;;;;40.83;7.63;;;;;;;8.11;100.00;103673.59;5073971;28;20049;-67
2021/03/17 01:10:12;;;;;;;31.73;6.88;;;;;;;8.12;100.00;103677.19;5073860;28;20070;-68
2021/03/17 01:12:38;;;;;;;35.08;5.70;;;;;;;8.10;100.00;103680.06;5055798;28;20024;-70
2021/03/17 01:15:05;;;;;;;34.13;6.88;;;;;;;8.09;100.00;103682.94;5074031;28;20094;-66
2021/03/17 01:17:31;;;;;;;39.55;7.25;;;;;;;8.08;100.00;103686.69;5055456;28;20056;-67
2021/03/17 01:19:56;;;;;;;40.80;7.07;;;;;;;8.08;100.00;103692.13;5073773;28;20467;-69
2021/03/17 01:22:22;;;;;;;26.70;5.10;;;;;;;8.05;100.00;103682.41;5055627;28;20127;-67
2021/03/17 01:24:47;;;;;;;33.08;7.00;;;;;;;8.05;100.00;103696.03;5073537;28;20086;-68
2021/03/17 01:27:13;;;;;;;37.45;6.55;;;;;;;8.02;100.00;103690.91;5073728;28;20040;-67
2021/03/17 01:29:38;;;;;;;41.33;6.28;;;;;;;8.00;100.00;103690.19;5073642;28;20437;-65
2021/03/17 01:32:05;;;;;;;44.42;7.47;;;;;;;7.97;100.00;103690.47;5073651;28;20045;-71
2021/03/17 01:34:30;;;;;;;42.70;7.40;;;;;;;7.95;100.00;103697.09;5073497;28;20036;-66
2021/03/17 01:36:56;;;;;;;34.75;5.03;;;;;;;7.93;100.00;103699.13;5073505;28;20210;-66
2021/03/17 01:39:21;;;;;;;39.45;5.30;;;;;;;7.90;100.00;103700.28;5073377;28;20109;-67
2021/03/17 01:41:47;;;;;;;39.20;6.03;;;;;;;7.88;100.00;103707.75;5073271;28;20036;-65
2021/03/17 01:44:13;;;;;;;40.33;6.95;;;;;;;7.88;100.00;103702.31;5073306;28;20498;-65
2021/03/17 01:46:39;;;;;;;27.13;5.55;;;;;;;7.85;100.00;103708.06;5073561;28;20043;-67
2021/03/17 01:49:05;;;;;;;35.38;5.70;;;;;;;7.83;100.00;103707.38;5073242;28;20040;-65
2021/03/17 01:51:31;;;;;;;43.80;5.90;;;;;;;7.81;100.00;103712.13;5073246;28;20071;-67
2021/03/17 01:54:02;;;;;;;37.33;6.43;;;;;;;7.78;100.00;103712.41;5073341;28;20093;-68
2021/03/17 01:56:29;;;;;;;44.90;6.65;;;;;;;7.76;100.00;103703.53;5072964;28;20048;-65
2021/03/17 01:58:55;;;;;;;42.25;6.28;;;;;;;7.75;100.00;103715.44;5073149;28;20064;-67
2021/03/17 02:01:21;;;;;;;36.03;6.25;;;;;;;7.72;100.00;103723.91;5072587;28;20490;-70
2021/03/17 02:03:48;;;;;;;35.95;6.55;;;;;;;7.70;100.00;103725.94;5072915;28;20044;-69
2021/03/17 02:06:13;;;;;;;34.22;6.00;;;;;;;7.68;100.00;103722.50;5073044;28;20044;-68
2021/03/17 02:08:43;;;;;;;33.50;6.00;;;;;;;7.65;100.00;103730.97;5054967;28;20165;-69
2021/03/17 02:11:10;;;;;;;44.22;6.72;;;;;;;7.64;100.00;103732.00;5072889;28;20115;-66
2021/03/17 02:13:49;;;;;;;34.53;6.70;;;;;;;7.60;100.00;103727.84;5072741;28;20044;-64
2021/03/17 02:16:17;;;;;;;42.38;6.13;;;;;;;7.59;100.00;103723.41;5072814;28;20067;-64
2021/03/17 02:19:08;;;;;;;43.95;6.32;;;;;;;7.59;100.00;103720.69;5072502;28;20041;-68
2021/03/17 02:22:11;;;;;;;37.75;7.00;;;;;;;7.56;100.00;103719.97;5072904;28;20448;-65
2021/03/17 02:24:39;;;;;;;34.92;5.75;;;;;;;7.53;100.00;103719.44;5072418;28;20040;-66
2021/03/17 02:27:39;;;;;;;37.75;6.25;;;;;;;7.50;100.00;103711.59;5072798;28;20042;-67
2021/03/17 02:30:26;;;;;;;36.55;6.97;;;;;;;7.46;100.00;103727.34;5072452;28;20039;-67
2021/03/17 02:32:51;;;;;;;33.78;7.28;;;;;;;7.42;100.00;103723.19;5054168;28;20036;-65
2021/03/17 02:35:20;;;;;;;36.95;6.13;;;;;;;7.41;100.00;103726.06;5072454;28;20101;-66
2021/03/17 02:37:49;;;;;;;31.98;6.10;;;;;;;7.39;100.00;103733.53;5072991;28;20435;-68
2021/03/17 02:40:30;;;;;;;41.53;6.78;;;;;;;7.36;100.00;103739.28;5072157;28;20071;-69
2021/03/17 02:43:10;;;;;;;37.33;5.95;;;;;;;7.34;100.00;103741.28;5072217;28;20036;-66
2021/03/17 02:45:41;;;;;;;46.72;7.38;;;;;;;7.32;100.00;103733.28;5072086;28;20140;-64
2021/03/17 02:48:14;;;;;;;30.35;5.90;;;;;;;7.31;100.00;103742.44;5072220;28;20032;-65
2021/03/17 02:50:47;;;;;;;34.28;6.25;;;;;;;7.29;100.00;103739.03;5072253;28;20040;-67
2021/03/17 02:53:15;;;;;;;36.60;5.97;;;;;;;7.26;100.00;103740.16;5037418;28;20513;-67
2021/03/17 02:55:47;;;;;;;41.17;6.38;;;;;;;7.26;100.00;103750.19;5072014;28;20037;-68
2021/03/17 02:58:14;;;;;;;39.05;6.38;;;;;;;7.23;100.00;103748.63;5071957;28;20040;-66
2021/03/17 03:00:40;;;;;;;33.22;6.47;;;;;;;7.22;100.00;103751.50;5054285;28;20044;-66
2021/03/17 03:03:09;;;;;;;30.73;5.07;;;;;;;7.18;100.00;103742.78;5071544;28;20040;-68
2021/03/17 03:05:37;;;;;;;40.15;6.13;;;;;;;7.16;100.00;103738.50;5071888;28;20028;-67
2021/03/17 03:08:03;;;;;;;42.53;7.38;;;;;;;7.13;100.00;103741.53;5071839;28;20041;-67
2021/03/17 03:10:30;;;;;;;42.25;6.32;;;;;;;7.12;100.00;103742.53;5072237;28;20037;-67
2021/03/17 03:12:58;;;;;;;34.80;5.72;;;;;;;7.10;100.00;103729.06;5070783;28;20044;-65
2021/03/17 03:15:27;;;;;;;40.35;5.63;;;;;;;7.06;100.00;103729.50;5071584;28;20028;-67
2021/03/17 03:17:56;;;;;;;39.88;7.65;;;;;;;7.04;100.00;103726.09;5071166;28;20076;-68
2021/03/17 03:20:25;;;;;;;37.65;6.50;;;;;;;7.03;100.00;103727.09;5071495;28;20052;-66
2021/03/17 03:22:53;;;;;;;38.05;5.80;;;;;;;7.00;100.00;103722.81;5071434;28;20032;-68
2021/03/17 03:25:20;;;;;;;41.10;6.53;;;;;;;6.98;100.00;103718.53;5071309;28;20067;-67
2021/03/17 03:27:47;;;;;;;38.47;7.47;;;;;;;6.97;100.00;103719.53;5071369;28;20040;-67
2021/03/17 03:30:16;;;;;;;31.63;5.85;;;;;;;6.93;100.00;103717.09;5071407;28;20383;-65
2021/03/17 03:32:43;;;;;;;41.47;6.65;;;;;;;6.92;100.00;103726.25;5071042;28;20467;-69
2021/03/17 03:35:15;;;;;;;38.75;5.20;;;;;;;6.91;100.00;103723.69;5071271;28;20028;-67
2021/03/17 03:37:41;;;;;;;43.00;6.57;;;;;;;6.88;100.00;103724.00;5071168;28;20115;-66
2021/03/17 03:40:12;;;;;;;36.35;6.38;;;;;;;6.86;100.00;103732.28;5071027;28;20086;-68
2021/03/17 03:42:38;;;;;;;34.97;6.35;;;;;;;6.84;100.00;103731.59;5071298;28;20029;-67
2021/03/17 03:45:06;;;;;;;36.05;5.75;;;;;;;6.80;100.00;103722.03;5071124;28;20475;-65
2021/03/17 03:47:32;;;;;;;37.83;6.63;;;;;;;6.78;100.00;103724.03;5070795;28;20124;-65
2021/03/17 03:49:59;;;;;;;40.83;6.30;;;;;;;6.76;100.00;103726.00;5070974;28;20127;-69
2021/03/17 03:52:34;;;;;;;34.17;6.15;;;;;;;6.74;100.00;103738.88;5071277;28;20048;-65
2021/03/17 03:55:52;;;;;;;45.67;7.57;;;;;;;6.75;100.00;103746.03;5070921;28;20048;-64
2021/03/17 03:58:28;;;;;;;37.45;6.22;;;;;;;6.72;100.00;103750.91;5001362;28;20165;-66
2021/03/17 04:01:01;;;;;;;36.38;7.32;;;;;;;6.69;100.00;103754.78;5070891;28;20032;-66
2021/03/17 04:03:32;;;;;;;35.97;5.63;;;;;;;6.69;100.00;103746.63;5071004;28;20090;-65
2021/03/17 04:05:58;;;;;;;48.95;5.90;;;;;;;6.66;100.00;103741.47;5070787;28;20040;-66
2021/03/17 04:08:26;;;;;;;38.50;7.55;;;;;;;6.67;100.00;103745.91;5070623;28;20035;-67
2021/03/17 04:10:58;;;;;;;32.05;5.70;;;;;;;6.65;100.00;103739.78;5070732;28;20033;-67
2021/03/17 04:13:26;;;;;;;39.28;6.38;;;;;;;6.65;100.00;103739.78;5070852;28;20040;-67
2021/03/17 04:15:55;;;;;;;41.03;6.20;;;;;;;6.63;100.00;103742.63;5052661;28;20116;-68
2021/03/17 04:18:24;;;;;;;28.98;5.30;;;;;;;6.63;100.00;103741.78;5070588;28;20468;-67
2021/03/17 04:20:52;;;;;;;36.28;6.95;;;;;;;6.62;100.00;103756.38;5070606;28;20051;-65
2021/03/17 04:23:23;;;;;;;38.67;5.15;;;;;;;6.60;100.00;103747.50;5070330;28;20040;-64
2021/03/17 04:25:52;;;;;;;37.15;6.38;;;;;;;6.59;100.00;103753.91;5070336;28;20028;-66
2021/03/17 04:28:21;;;;;;;35.60;5.75;;;;;;;6.59;100.00;103756.63;5070878;28;20040;-68
2021/03/17 04:30:50;;;;;;;38.45;6.43;;;;;;;6.57;100.00;103758.63;5070537;28;20029;-66
2021/03/17 04:33:17;;;;;;;36.78;5.97;;;;;;;6.54;100.00;103758.94;5070533;28;20032;-68
2021/03/17 04:35:44;;;;;;;44.40;6.88;;;;;;;6.53;100.00;103759.94;5052546;28;20040;-67
2021/03/17 04:38:13;;;;;;;45.22;7.00;;;;;;;6.52;100.00;103774.50;5052050;28;20040;-67
2021/03/17 04:40:40;;;;;;;29.83;5.75;;;;;;;6.50;100.00;103773.81;5070477;28;20036;-65
2021/03/17 04:43:06;;;;;;;40.22;5.15;;;;;;;6.50;100.00;103779.22;5070359;28;20455;-66
2021/03/17 04:45:33;;;;;;;42.65;7.20;;;;;;;6.48;100.00;103781.25;5070338;28;20044;-68
2021/03/17 04:47:59;;;;;;;31.33;5.50;;;;;;;6.47;100.00;103779.53;5070513;28;20054;-64
2021/03/17 04:50:28;;;;;;;34.03;6.50;;;;;;;6.45;100.00;103776.97;5070356;28;20036;-66
2021/03/17 04:52:54;;;;;;;37.90;7.10;;;;;;;6.42;100.00;103781.78;5070100;28;20459;-66
2021/03/17 04:55:20;;;;;;;40.78;7.25;;;;;;;6.43;100.00;103788.97;5070353;28;20522;-68
2021/03/17 04:57:47;;;;;;;25.10;5.65;;;;;;;6.42;100.00;103792.66;5070283;28;20036;-64
2021/03/17 05:00:17;;;;;;;40.05;5.07;;;;;;;6.40;100.00;103789.22;5070117;28;20075;-67
2021/03/17 05:02:50;;;;;;;36.67;6.55;;;;;;;6.39;100.00;103787.50;5070236;28;20123;-68
2021/03/17 05:05:17;;;;;;;35.97;5.78;;;;;;;6.37;100.00;103786.78;5070343;28;20040;-68
2021/03/17 05:07:44;;;;;;;44.08;6.60;;;;;;;6.34;100.00;103786.09;5070018;28;20054;-65
2021/03/17 05:10:12;;;;;;;36.03;5.28;;;;;;;6.33;100.00;103800.66;5070169;28;20041;-64
2021/03/17 05:12:38;;;;;;;42.17;6.95;;;;;;;6.32;100.00;103790.81;5070104;28;20119;-65
2021/03/17 05:15:06;;;;;;;38.00;6.30;;;;;;;6.31;100.00;103790.94;5069905;28;20066;-64
2021/03/17 05:17:37;;;;;;;37.95;5.95;;;;;;;6.30;100.00;103784.66;5069994;28;20040;-67
2021/03/17 05:20:09;;;;;;;34.67;5.95;;;;;;;6.30;100.00;103784.66;5070210;28;20039;-69
2021/03/17 05:22:37;;;;;;;45.03;6.68;;;;;;;6.29;100.00;103782.94;5069881;28;20025;-68
2021/03/17 05:25:06;;;;;;;39.85;6.90;;;;;;;6.28;100.00;103774.94;5070135;28;20067;-67
2021/03/17 05:27:34;;;;;;;36.47;5.97;;;;;;;6.26;100.00;103779.66;5070037;28;20107;-68
2021/03/17 05:30:03;;;;;;;33.88;5.70;;;;;;;6.25;100.00;103783.38;5069881;28;20043;-66
2021/03/17 05:32:29;;;;;;;32.10;4.18;;;;;;;6.23;100.00;103777.22;5051789;28;20105;-65
2021/03/17 05:35:04;;;;;;;35.67;5.72;;;;;;;6.21;100.00;103793.63;5070137;28;20036;-65
2021/03/17 05:37:30;;;;;;;39.13;5.93;;;;;;;6.19;100.00;103792.06;5072773;28;20501;-64
2021/03/17 05:39:56;;;;;;;32.53;7.35;;;;;;;6.18;100.00;103795.78;5073417;28;20143;-66
2021/03/17 05:42:23;;;;;;;34.45;5.18;;;;;;;6.16;100.00;103798.63;5073311;28;20379;-67
2021/03/17 05:44:50;;;;;;;33.17;6.38;;;;;;;6.15;100.00;103786.06;5073142;28;20120;-67
2021/03/17 05:47:18;;;;;;;39.55;6.32;;;;;;;6.14;100.00;103787.06;5073809;28;20059;-67
2021/03/17 05:49:45;;;;;;;29.33;5.15;;;;;;;6.13;100.00;103785.34;5073582;28;20044;-65
2021/03/17 05:52:10;;;;;;;43.25;8.40;;;;;;;6.13;100.00;103777.22;5073135;28;20456;-68
2021/03/17 05:54:36;;;;;;;43.08;6.80;;;;;;;6.11;100.00;103773.78;5073714;28;20035;-70
2021/03/17 05:57:04;;;;;;;43.38;6.03;;;;;;;6.10;100.00;103772.06;5073131;28;20044;-66
2021/03/17 05:59:30;;;;;;;40.20;5.55;;;;;;;6.08;100.00;103768.66;5072962;28;20040;-67
2021/03/17 06:01:57;;;;;;;47.50;6.43;;;;;;;6.07;100.00;103772.34;5073094;28;20073;-66
2021/03/17 06:04:27;;;;;;;40.47;6.18;;;;;;;6.05;100.00;103769.75;5072947;28;20047;-68
2021/03/17 06:06:57;;;;;;;43.38;6.63;;;;;;;6.05;100.00;103774.34;5054981;28;20045;-66
2021/03/17 06:09:25;;;;;;;39.90;6.18;;;;;;;6.05;100.00;103785.19;5073287;28;20494;-67
2021/03/17 06:11:51;;;;;;;33.95;5.85;;;;;;;6.05;100.00;103774.34;5072818;28;20087;-67
2021/03/17 06:14:22;;;;;;;36.53;5.88;;;;;;;6.05;100.00;103771.63;5072510;28;20102;-66
2021/03/17 06:16:58;;;;;;;37.40;5.30;;;;;;;6.04;100.00;103770.75;5072839;28;20036;-68
2021/03/17 06:19:25;;;;;;;41.92;7.75;;;;;;;6.05;100.00;103787.91;5072825;28;20042;-66
2021/03/17 06:21:52;;;;;;;31.20;6.05;;;;;;;6.04;100.00;103787.03;5072961;28;20040;-68
2021/03/17 06:24:18;;;;;;;38.97;6.05;;;;;;;6.04;100.00;103788.91;5072624;28;20441;-67
2021/03/17 06:26:47;;;;;;;34.47;6.15;;;;;;;6.03;100.00;103798.91;5072757;28;20386;-67
2021/03/17 06:29:13;;;;;;;44.42;6.70;;;;;;;6.04;100.00;103810.59;5072418;28;20131;-68
2021/03/17 06:31:40;;;;;;;37.22;5.20;;;;;;;6.02;100.00;103815.31;5072500;28;20107;-67
2021/03/17 06:34:05;;;;;;;49.63;7.30;;;;;;;6.02;100.00;103810.75;5072428;28;20525;-67
2021/03/17 06:36:31;;;;;;;33.20;5.57;;;;;;;6.02;100.00;103815.31;5072336;28;20047;-66
2021/03/17 06:39:09;;;;;;;45.28;7.18;;;;;;;6.02;100.00;103812.59;5072545;28;20414;-66
2021/03/17 06:41:49;;;;;;;43.83;7.03;;;;;;;6.03;100.00;103814.31;5072549;28;20470;-67
2021/03/17 06:44:26;;;;;;;42.17;5.82;;;;;;;6.05;100.00;103817.75;5072583;28;20352;-67
2021/03/17 06:47:14;;;;;;;35.92;6.78;;;;;;;6.04;100.00;103816.88;5072460;28;20127;-65
2021/03/17 06:49:44;;;;;;;48.13;6.70;;;;;;;6.05;100.00;103817.75;5072525;28;20429;-68
2021/03/17 06:52:48;;;;;;;29.48;5.65;;;;;;;6.06;100.00;103808.59;5072138;28;20467;-67
2021/03/17 06:55:19;;;;;;;39.72;6.70;;;;;;;6.06;100.00;103808.59;4974566;28;20461;-64
2021/03/17 06:57:47;;;;;;;30.33;5.13;;;;;;;6.09;100.00;103800.22;4990610;28;20046;-67
2021/03/17 07:00:31;;;;;;;40.75;6.80;;;;;;;6.11;100.00;103791.94;5032501;28;20433;-63
2021/03/17 07:03:02;;;;;;;33.67;6.03;;;;;;;6.12;100.00;103786.34;5072086;28;20036;-67
2021/03/17 07:05:34;;;;;;;42.30;6.60;;;;;;;6.13;100.00;103782.66;5071697;28;20033;-66
2021/03/17 07:08:01;;;;;;;35.13;6.20;;;;;;;6.13;100.00;103782.66;5071827;28;20040;-67
2021/03/17 07:10:32;;;;;;;33.63;6.07;;;;;;;6.13;100.00;103782.66;5071751;28;20535;-66
2021/03/17 07:12:59;;;;;;;48.33;9.02;;;;;;;6.16;100.00;103792.34;5071740;28;20040;-65
2021/03/17 07:15:25;;;;;;;39.60;7.28;;;;;;;6.16;100.00;103798.63;5071903;28;20111;-67
2021/03/17 07:18:13;;;;;;;34.03;6.05;;;;;;;6.18;100.00;103801.22;5071424;28;20052;-67
2021/03/17 07:20:42;;;;;;;35.72;6.22;;;;;;;6.21;100.00;103801.78;5071441;28;20106;-70
2021/03/17 07:23:25;;;;;;;41.47;8.43;;;;;;;6.26;100.00;103798.66;5053576;28;20028;-67
2021/03/17 07:26:06;;;;;;;32.35;5.95;;;;;;;6.31;100.00;103807.25;5071410;28;20033;-66
2021/03/17 07:28:54;;;;;;;36.08;5.45;;;;;;;6.40;100.00;103802.78;5071473;28;20135;-65
2021/03/17 07:31:38;;;;;;;37.33;5.32;;;;;;;6.47;100.00;103809.41;5071464;28;20123;-65
2021/03/17 07:34:15;;;;;;;34.03;6.32;;;;;;;6.53;100.00;103816.97;5071387;28;20138;-66
2021/03/17 07:36:49;;;;;;;40.67;6.28;;;;;;;6.59;100.00;103817.22;5071112;28;20043;-69
2021/03/17 07:39:27;;;;;;;37.83;5.70;;;;;;;6.74;100.00;103814.94;5071154;28;20047;-66
2021/03/17 07:41:56;;;;;;;43.22;6.70;;;;;;;6.81;100.00;103810.66;5071093;28;20032;-67
2021/03/17 07:44:24;;;;;;;34.42;6.10;;;;;;;6.91;100.00;103811.50;5052799;28;20047;-64
2021/03/17 07:46:53;;;;;;;36.42;6.15;;;;;;;7.07;100.00;103816.34;5071511;28;20036;-63
2021/03/17 07:49:19;;;;;;;37.80;6.13;;;;;;;7.11;100.00;103816.91;5071416;28;20036;-69
2021/03/17 07:51:49;;;;;;;36.85;6.30;;;;;;;7.13;100.00;103809.47;5071061;28;20155;-65
2021/03/17 07:54:31;;;;;;;38.15;6.88;;;;;;;7.15;100.00;103800.16;5071012;28;20411;-68
2021/03/17 07:56:58;;;;;;;40.22;7.75;;;;;;;7.18;100.00;103802.59;5070949;28;20051;-66
2021/03/17 07:59:25;;;;;;;44.92;7.55;;;;;;;7.23;100.00;103804.84;5070474;28;20064;-68
2021/03/17 08:01:53;;;;;;;37.28;6.35;;;;;;;7.27;100.00;103809.00;5052993;28;20044;-68
2021/03/17 08:04:28;;;;;;;37.95;6.53;;;;;;;7.34;100.00;103807.41;5070746;28;20037;-65
2021/03/17 08:06:59;;;;;;;35.08;5.95;;;;;;;7.39;100.00;103810.53;5070788;28;20119;-68
2021/03/17 08:09:25;;;;;;;32.78;6.28;;;;;;;7.45;100.00;103804.47;5070744;28;20163;-71
2021/03/17 08:11:52;;;;;;;51.42;7.32;;;;;;;7.48;100.00;103801.50;5052604;28;20817;-64
2021/03/17 08:14:20;;;;;;;37.40;6.38;;;;;;;7.51;100.00;103803.91;5070653;28;20044;-67
2021/03/17 08:16:46;;;;;;;42.30;6.60;;;;;;;7.54;100.00;103803.59;5070673;28;20170;-65
2021/03/17 08:19:24;;;;;;;34.05;5.10;;;;;;;7.56;100.00;103785.28;5070517;28;20048;-68
2021/03/17 08:21:55;;;;;;;33.55;6.45;;;;;;;7.60;100.00;103790.41;5070588;28;20391;-67
2021/03/17 08:24:38;;;;;;;36.65;6.97;;;;;;;7.65;100.00;103779.94;5070466;28;20052;-68
2021/03/17 08:27:07;;;;;;;39.33;6.57;;;;;;;7.68;100.00;103782.38;5070321;28;20033;-66
2021/03/17 08:29:38;;;;;;;33.65;6.22;;;;;;;7.68;100.00;103785.09;5070446;28;20038;-65
2021/03/17 08:32:05;;;;;;;33.05;6.10;;;;;;;7.73;100.00;103785.47;5070374;28;20033;-64
2021/03/17 08:34:32;;;;;;;37.60;6.53;;;;;;;7.77;100.00;103784.16;5052831;28;20040;-64
2021/03/17 08:37:03;;;;;;;28.30;5.90;;;;;;;7.81;100.00;103783.72;5070600;28;20029;-68
2021/03/17 08:39:29;;;;;;;32.55;5.78;;;;;;;7.85;100.00;103784.28;5070512;28;20044;-66
2021/03/17 08:42:07;;;;;;;33.42;5.65;;;;;;;7.89;100.00;103777.50;5070266;28;20040;-67
2021/03/17 08:44:44;;;;;;;26.73;6.32;;;;;;;7.91;100.00;103767.31;5070440;28;20115;-67
2021/03/17 08:47:52;;;;;;;37.60;6.15;;;;;;;7.92;100.00;103758.16;5070633;28;20098;-70
2021/03/17 08:50:22;;;;;;;35.97;6.13;;;;;;;8.01;100.00;103753.66;5073847;28;20032;-66
2021/03/17 08:52:49;;;;;;;34.47;6.03;;;;;;;8.08;100.00;103758.31;5070483;28;20483;-64
2021/03/17 08:55:33;;;;;;;37.70;5.90;;;;;;;8.14;100.00;103757.69;5070460;28;20438;-64
2021/03/17 08:58:01;;;;;;;40.15;6.68;;;;;;;8.24;100.00;103762.22;5070166;28;20119;-65
2021/03/17 09:00:50;;;;;;;37.90;6.05;;;;;;;8.32;100.00;103765.00;5070275;28;20052;-65
2021/03/17 09:03:31;;;;;;;33.20;5.50;;;;;;;8.43;100.00;103762.09;5069846;28;20483;-66
2021/03/17 09:06:12;;;;;;;36.13;5.03;;;;;;;8.51;100.00;103764.91;5071010;28;20043;-63
2021/03/17 09:08:50;;;;;;;36.30;5.97;;;;;;;8.64;100.00;103759.03;5071043;28;20106;-64
2021/03/17 09:11:28;;;;;;;42.17;5.97;;;;;;;8.74;100.00;103755.22;5060765;28;20418;-64
2021/03/17 09:13:56;;;;;;;22.38;5.30;;;;;;;8.86;100.00;103757.69;5074226;28;20044;-64
2021/03/17 09:16:22;;;;;;;37.53;6.13;;;;;;;8.97;100.00;103754.69;5073851;28;20120;-66
2021/03/17 09:19:07;;;;;;;31.13;7.00;;;;;;;9.09;100.00;103758.88;5073615;28;20454;-68
2021/03/17 09:21:33;;;;;;;;;;;;;;;9.21;100.00;103751.28;5074315;28;20398;-63
2021/03/17 09:23:59;;;;;;;40.50;6.60;;;;;;;9.29;100.00;103749.44;5073925;28;19923;-62
2021/03/17 09:26:31;;;;;;;26.65;5.50;;;;;;;9.35;100.00;103742.47;5073704;28;20032;-65
2021/03/17 09:29:07;;;;;;;29.27;6.25;;;;;;;9.45;100.00;103747.81;5073349;28;20101;-64
2021/03/17 09:31:34;;;;;;;26.60;6.18;;;;;;;9.51;100.00;103738.94;5073286;28;20449;-65
2021/03/17 09:34:00;;;;;;;41.30;8.40;;;;;;;9.61;100.00;103736.97;5073430;28;20486;-63
2021/03/17 09:36:28;;;;;;;31.40;5.65;;;;;;;9.71;100.00;103736.81;5073606;28;20115;-65
2021/03/17 09:38:56;;;;;;;53.65;9.90;;;;;;;9.79;100.00;103729.50;5073694;28;20044;-65
2021/03/17 09:41:25;;;;;;;34.67;5.25;;;;;;;9.97;100.00;103732.09;5073473;28;20032;-67
2021/03/17 09:44:13;;;;;;;45.35;8.02;;;;;;;10.11;100.00;103741.53;5073433;28;20062;-66
2021/03/17 09:46:42;;;;;;;27.63;5.75;;;;;;;10.27;100.00;103744.31;5055711;28;20059;-64
2021/03/17 09:49:11;;;;;;;33.90;6.47;;;;;;;10.44;100.00;103751.50;5073395;28;20024;-66
2021/03/17 09:51:43;;;;;;;33.13;5.95;;;;;;;10.67;100.00;103754.41;5073398;28;20127;-67
2021/03/17 09:54:16;;;;;;;33.53;5.93;;;;;;;10.84;100.00;103763.44;5037874;28;20052;-65
2021/03/17 09:56:56;;;;;;;22.23;5.10;;;;;;;11.01;100.00;103756.91;5073321;28;20494;-66
2021/03/17 09:59:25;;;;;;;30.55;5.13;;;;;;;11.12;100.00;103753.84;5072887;28;20462;-66
2021/03/17 10:02:17;;;;;;;25.20;4.45;;;;;;;11.28;100.00;103768.47;5073094;28;20055;-66
2021/03/17 10:04:45;;;;;;;25.08;4.82;;;;;;;11.39;100.00;103762.63;5072713;28;20056;-64
2021/03/17 10:07:13;;;;;;;21.35;5.60;;;;;;;11.46;100.00;103748.09;5072985;28;20127;-65
2021/03/17 10:09:40;;;;;;;23.52;5.10;;;;;;;11.55;100.00;103751.63;5073015;28;20516;-66
2021/03/17 10:12:09;;;;;;;25.15;5.43;;;;;;;11.63;100.00;103743.41;5072716;28;20078;-66
2021/03/17 10:14:37;;;;;;;21.52;5.25;;;;;;;11.68;100.00;103751.06;5072837;28;20475;-65
2021/03/17 10:17:07;;;;;;;25.63;4.50;;;;;;;11.72;100.00;103753.25;5072602;28;20044;-64
2021/03/17 10:19:35;;;;;;;19.55;4.65;;;;;;;11.80;100.00;103755.13;5072727;28;20078;-65
2021/03/17 10:22:02;;;;;;;30.02;4.40;;;;;;;11.87;100.00;103745.16;5072630;28;20024;-66
2021/03/17 10:24:40;;;;;;;24.08;4.43;;;;;;;11.94;100.00;103746.16;5072437;28;20098;-64
2021/03/17 10:27:10;;;;;;;19.58;4.18;;;;;;;12.04;100.00;103733.09;5072553;28;20032;-66
2021/03/17 10:29:38;;;;;;;27.17;4.72;;;;;;;12.13;100.00;103733.00;5072710;28;20108;-65
2021/03/17 10:32:05;;;;;;;23.50;5.38;;;;;;;12.12;100.00;103737.63;5072478;28;20071;-67
2021/03/17 10:34:31;;;;;;;20.77;4.40;;;;;;;12.23;100.00;103739.13;5072217;28;20524;-66
2021/03/17 10:36:58;;;;;;;24.02;4.65;;;;;;;12.41;100.00;103742.41;5072445;28;20032;-66
2021/03/17 10:39:35;;;;;;;34.08;6.53;;;;;;;12.54;100.00;103730.81;5072220;28;20075;-65
2021/03/17 10:42:02;;;;;;;26.83;4.90;;;;;;;12.69;100.00;103734.47;5072223;28;20062;-65
2021/03/17 10:44:30;;;;;;;56.58;9.70;;;;;;;12.91;100.00;103736.28;5071120;28;20120;-65
2021/03/17 10:47:08;;;;;;;22.63;5.20;;;;;;;13.11;100.00;103735.75;5070869;28;20055;-66
2021/03/17 10:49:45;;;;;;;23.58;5.55;;;;;;;13.23;100.00;103731.53;5070611;28;20043;-66
2021/03/17 10:52:12;;;;;;;16.30;4.15;;;;;;;13.25;100.00;103730.28;5071889;28;20297;-65
2021/03/17 10:54:43;;;;;;;20.08;4.43;;;;;;;13.30;100.00;103732.47;5071765;28;20038;-66
2021/03/17 10:57:17;;;;;;;30.63;5.57;;;;;;;13.36;100.00;103737.19;5071849;28;20032;-65
2021/03/17 10:59:43;;;;;;;18.73;3.65;;;;;;;13.45;100.00;103738.81;5072170;28;20082;-66
2021/03/17 11:02:30;;;;;;;38.97;5.18;;;;;;;13.49;100.00;103726.38;5071918;28;20048;-68
2021/03/17 11:05:21;;;;;;;22.52;4.60;;;;;;;13.51;100.00;103739.91;5071850;28;20041;-66
2021/03/17 11:08:06;;;;;;;15.48;3.75;;;;;;;13.45;100.00;103741.53;5071715;28;20043;-66
2021/03/17 11:10:31;;;;;;;16.33;3.83;;;;;;;13.35;100.00;103740.97;5071671;28;20058;-68
2021/03/17 11:13:09;;;;;;;18.50;4.07;;;;;;;13.34;100.00;103733.78;5071625;28;20028;-66
2021/03/17 11:15:41;;;;;;;14.30;4.25;;;;;;;13.50;100.00;103739.06;5071778;28;20029;-67
2021/03/17 11:18:08;;;;;;;20.02;4.15;;;;;;;13.65;100.00;103729.97;5070107;28;20048;-66
2021/03/17 11:20:42;;;;;;;21.35;4.45;;;;;;;13.80;100.00;103728.03;5071627;28;20082;-65
2021/03/17 11:23:22;;;;;;;18.75;4.00;;;;;;;14.03;100.00;103728.72;5071600;28;20036;-67
2021/03/17 11:25:50;;;;;;;16.85;3.78;;;;;;;14.21;100.00;103724.66;5071355;28;20033;-68
2021/03/17 11:28:18;;;;;;;13.38;3.20;;;;;;;14.41;100.00;103726.59;5071513;28;20051;-68
2021/03/17 11:31:09;;;;;;;13.48;2.92;;;;;;;14.54;100.00;103719.50;5071484;28;20039;-66
2021/03/17 11:33:35;;;;;;;14.13;3.63;;;;;;;14.69;100.00;103718.38;5061507;28;20126;-67